Time;durP1;ratioP1;P1;durP2;ratioP2;P2;SDS_P1;SDS_P2;PMS_P1;PMS_P2;Temp;Humidity;BMP_temperature;BMP_pressure;BME280_temperature;BME280_humidity;BME280_pressure;Samples;Min_cycle;Max_cycle;Signal;HPM_P1;HPM_P2
2022/06/13 00:01:46;;;;;;;1.30;1.05;;;19.50;99.80;;;;;;5049174;28;20197;-58
2022/06/13 00:04:14;;;;;;;1.10;1.00;;;19.50;99.80;;;;;;5047517;28;20642;-58
2022/06/13 00:06:43;;;;;;;1.10;1.00;;;19.50;99.80;;;;;;5048606;28;20251;-57
2022/06/13 00:09:11;;;;;;;1.75;0.90;;;19.50;99.80;;;;;;5048072;28;20311;-58
2022/06/13 00:11:38;;;;;;;1.13;1.00;;;19.50;99.80;;;;;;5048095;28;20201;-57
2022/06/13 00:14:06;;;;;;;0.80;0.80;;;19.50;99.80;;;;;;5047637;28;20190;-58
2022/06/13 00:16:33;;;;;;;0.90;0.90;;;19.50;99.80;;;;;;5038205;28;20276;-56
2022/06/13 00:19:01;;;;;;;1.10;1.00;;;19.50;99.70;;;;;;5063644;28;20220;-57
2022/06/13 00:21:31;;;;;;;0.98;0.98;;;19.50;99.80;;;;;;5054331;28;20224;-56
2022/06/13 00:24:01;;;;;;;0.90;0.90;;;19.50;99.70;;;;;;5035146;28;20234;-58
2022/06/13 00:26:30;;;;;;;0.70;0.70;;;19.50;99.70;;;;;;5049621;28;20521;-58
2022/06/13 00:28:58;;;;;;;0.70;0.70;;;19.50;99.70;;;;;;5046584;28;20204;-57
2022/06/13 00:31:25;;;;;;;0.85;0.82;;;19.50;99.70;;;;;;5056839;28;20194;-58
2022/06/13 00:33:52;;;;;;;0.93;0.93;;;19.60;99.70;;;;;;5048247;28;20254;-59
2022/06/13 00:36:21;;;;;;;1.73;0.68;;;19.50;99.60;;;;;;5047907;28;20627;-59
2022/06/13 00:38:49;;;;;;;0.85;0.80;;;19.50;99.60;;;;;;5043812;28;20194;-59
2022/06/13 00:41:23;;;;;;;0.82;0.75;;;19.50;99.60;;;;;;5037134;28;20202;-59
2022/06/13 00:43:51;;;;;;;0.70;0.70;;;19.50;99.60;;;;;;5047473;28;20198;-59
2022/06/13 00:46:23;;;;;;;0.85;0.85;;;19.40;99.60;;;;;;5048435;28;20569;-58
2022/06/13 00:48:51;;;;;;;0.70;0.70;;;19.50;99.70;;;;;;5041294;28;20229;-59
2022/06/13 00:51:19;;;;;;;0.70;0.70;;;19.50;99.70;;;;;;5046277;28;20271;-59
2022/06/13 00:53:46;;;;;;;0.80;0.80;;;19.40;99.90;;;;;;5048066;28;20197;-59
2022/06/13 00:56:17;;;;;;;1.02;0.82;;;19.40;99.60;;;;;;5046811;28;20206;-57
2022/06/13 00:58:50;;;;;;;2.05;1.00;;;19.50;99.60;;;;;;5051134;28;20249;-57
2022/06/13 01:01:18;;;;;;;1.55;0.85;;;19.40;99.60;;;;;;5054499;28;20193;-59
2022/06/13 01:03:46;;;;;;;0.70;0.70;;;19.40;99.60;;;;;;5050922;28;20646;-59
2022/06/13 01:06:13;;;;;;;0.70;0.70;;;19.40;99.60;;;;;;5053300;28;20198;-58
2022/06/13 01:08:41;;;;;;;0.82;0.70;;;19.30;99.50;;;;;;5052590;28;20227;-58
2022/06/13 01:11:16;;;;;;;0.60;0.60;;;19.40;99.60;;;;;;5056257;28;20622;-58
2022/06/13 01:14:23;;;;;;;0.70;0.70;;;19.30;99.50;;;;;;5056009;28;20197;-59
2022/06/13 01:17:05;;;;;;;0.70;0.70;;;19.40;99.50;;;;;;5048432;28;20304;-59
2022/06/13 01:20:05;;;;;;;1.25;0.70;;;19.40;99.50;;;;;;5051657;28;20642;-58
2022/06/13 01:23:13;;;;;;;0.60;0.60;;;19.40;99.50;;;;;;5037158;28;20221;-58
2022/06/13 01:26:10;;;;;;;0.80;0.80;;;19.40;99.40;;;;;;5039276;28;20221;-59
2022/06/13 01:28:56;;;;;;;0.60;0.60;;;19.30;99.40;;;;;;5054664;28;20211;-58
2022/06/13 01:31:31;;;;;;;0.80;0.80;;;19.40;99.40;;;;;;5057889;28;20616;-59
2022/06/13 01:34:05;;;;;;;0.75;0.70;;;19.40;99.40;;;;;;5051145;28;20689;-59
2022/06/13 01:36:50;;;;;;;0.70;0.70;;;19.40;99.40;;;;;;5054218;28;20285;-59
2022/06/13 01:39:30;;;;;;;0.60;0.60;;;19.40;99.40;;;;;;5054345;28;20213;-59
2022/06/13 01:42:08;;;;;;;0.80;0.68;;;19.30;99.40;;;;;;5054036;28;20220;-58
2022/06/13 01:44:43;;;;;;;0.60;0.60;;;19.40;99.40;;;;;;5046287;28;20217;-56
2022/06/13 01:47:19;;;;;;;0.80;0.80;;;19.40;99.40;;;;;;5054496;28;20212;-58
2022/06/13 01:49:57;;;;;;;0.88;0.75;;;19.40;99.30;;;;;;5062841;28;20361;-56
2022/06/13 01:52:34;;;;;;;0.77;0.70;;;19.40;99.40;;;;;;5057303;28;20204;-58
2022/06/13 01:55:09;;;;;;;0.80;0.80;;;19.40;99.40;;;;;;5050720;28;20247;-58
2022/06/13 01:57:40;;;;;;;0.85;0.85;;;19.40;99.40;;;;;;5053628;28;20213;-57
2022/06/13 02:00:12;;;;;;;3.88;0.95;;;19.40;99.40;;;;;;5049188;28;20197;-57
2022/06/13 02:02:46;;;;;;;0.88;0.88;;;19.30;99.50;;;;;;5053779;28;20598;-58
2022/06/13 02:05:20;;;;;;;0.95;0.95;;;19.40;99.50;;;;;;5051049;28;20224;-58
2022/06/13 02:07:51;;;;;;;1.00;1.00;;;19.40;99.60;;;;;;5051894;28;20209;-58
2022/06/13 02:10:23;;;;;;;1.30;1.20;;;19.40;99.60;;;;;;5064802;28;20674;-58
2022/06/13 02:12:53;;;;;;;1.40;1.33;;;19.40;99.60;;;;;;5051906;28;20198;-58
2022/06/13 02:15:24;;;;;;;2.67;1.50;;;19.30;99.90;;;;;;5052281;28;20237;-59
2022/06/13 02:17:59;;;;;;;1.30;1.30;;;19.40;99.60;;;;;;5043239;28;20275;-58
2022/06/13 02:20:30;;;;;;;1.60;1.33;;;19.30;99.60;;;;;;5055601;28;20215;-58
2022/06/13 02:23:02;;;;;;;1.40;1.30;;;19.20;99.60;;;;;;5058728;28;20236;-58
2022/06/13 02:25:32;;;;;;;1.35;1.25;;;19.20;99.70;;;;;;5050076;28;20627;-58
2022/06/13 02:28:03;;;;;;;1.42;1.33;;;19.20;99.70;;;;;;5050962;28;20547;-57
2022/06/13 02:30:35;;;;;;;1.20;1.20;;;19.20;99.80;;;;;;5043765;28;20243;-58
2022/06/13 02:33:08;;;;;;;1.20;1.10;;;19.20;99.80;;;;;;5050091;28;20198;-58
2022/06/13 02:35:39;;;;;;;1.50;1.40;;;19.20;99.80;;;;;;5049629;28;20202;-54
2022/06/13 02:38:09;;;;;;;1.48;1.25;;;19.20;99.80;;;;;;5040241;28;20214;-58
2022/06/13 02:40:44;;;;;;;1.30;1.20;;;19.20;99.80;;;;;;5050204;28;20242;-58
2022/06/13 02:43:16;;;;;;;0.93;0.93;;;19.20;99.80;;;;;;5044135;28;20187;-57
2022/06/13 02:45:48;;;;;;;1.13;1.10;;;19.20;99.90;;;;;;5042469;28;20267;-57
2022/06/13 02:48:21;;;;;;;1.08;1.00;;;19.20;99.90;;;;;;5050281;28;20263;-56
2022/06/13 02:50:55;;;;;;;1.00;1.00;;;19.20;99.90;;;;;;5049307;28;20293;-57
2022/06/13 02:53:26;;;;;;;0.90;0.90;;;19.20;99.90;;;;;;5045545;28;20222;-56
2022/06/13 02:56:15;;;;;;;0.85;0.85;;;19.30;99.90;;;;;;5048551;28;20247;-57
2022/06/13 02:58:54;;;;;;;1.13;1.05;;;19.30;99.90;;;;;;5049260;28;20724;-56
2022/06/13 03:01:26;;;;;;;0.98;0.98;;;19.30;99.90;;;;;;5049976;28;20221;-58
2022/06/13 03:04:05;;;;;;;1.02;1.02;;;19.30;99.90;;;;;;5052585;28;20271;-58
2022/06/13 03:06:42;;;;;;;0.95;0.95;;;19.20;99.80;;;;;;5049189;28;20201;-59
2022/06/13 03:09:15;;;;;;;0.80;0.80;;;19.20;99.90;;;;;;5052110;28;20190;-57
2022/06/13 03:11:54;;;;;;;0.80;0.80;;;19.10;99.90;;;;;;5049453;28;20673;-58
2022/06/13 03:14:37;;;;;;;1.05;1.00;;;19.20;99.90;;;;;;5048876;28;20217;-57
2022/06/13 03:17:13;;;;;;;1.05;1.05;;;19.10;99.90;;;;;;5048212;28;20221;-58
2022/06/13 03:19:46;;;;;;;1.73;0.93;;;19.10;99.90;;;;;;5048249;28;20599;-59
2022/06/13 03:22:19;;;;;;;0.77;0.77;;;19.10;99.90;;;;;;5056026;28;20201;-59
2022/06/13 03:24:51;;;;;;;1.42;0.98;;;19.10;99.80;;;;;;5055507;28;20258;-57
2022/06/13 03:27:26;;;;;;;1.05;1.00;;;19.10;99.90;;;;;;5056879;28;20625;-57
2022/06/13 03:29:59;;;;;;;0.90;0.90;;;19.10;99.90;;;;;;5060518;28;20263;-59
2022/06/13 03:32:30;;;;;;;0.93;0.93;;;19.10;99.90;;;;;;5049311;28;20302;-59
2022/06/13 03:35:04;;;;;;;0.50;0.50;;;19.10;99.90;;;;;;5050733;28;20275;-58
2022/06/13 03:37:35;;;;;;;0.77;0.77;;;19.10;99.90;;;;;;5056584;28;20193;-59
2022/06/13 03:40:07;;;;;;;0.70;0.70;;;19.10;99.90;;;;;;5068369;28;20221;-59
2022/06/13 03:42:41;;;;;;;0.77;0.77;;;19.20;99.90;;;;;;5069308;28;20618;-58
2022/06/13 03:45:16;;;;;;;0.75;0.75;;;19.20;99.90;;;;;;5037198;28;20467;-57
2022/06/13 03:47:48;;;;;;;0.85;0.70;;;19.20;99.90;;;;;;5053057;28;20238;-55
2022/06/13 03:50:22;;;;;;;2.05;1.13;;;19.10;99.90;;;;;;5067687;28;20221;-58
2022/06/13 03:52:54;;;;;;;0.60;0.60;;;19.10;99.90;;;;;;5067579;28;20203;-58
2022/06/13 03:55:26;;;;;;;0.60;0.60;;;19.10;99.90;;;;;;5063726;28;20189;-57
2022/06/13 03:57:59;;;;;;;0.80;0.80;;;19.10;99.90;;;;;;5049930;28;20658;-57
2022/06/13 04:00:29;;;;;;;1.10;1.00;;;19.10;99.90;;;;;;5050381;28;20203;-58
2022/06/13 04:02:57;;;;;;;0.82;0.82;;;19.10;99.90;;;;;;5049074;28;20612;-56
2022/06/13 04:05:31;;;;;;;0.85;0.85;;;19.10;99.90;;;;;;5061335;28;20581;-58
2022/06/13 04:08:01;;;;;;;0.50;0.50;;;19.10;99.90;;;;;;5046615;28;20239;-58
2022/06/13 04:10:32;;;;;;;0.80;0.80;;;19.10;99.90;;;;;;5049619;28;20221;-57
2022/06/13 04:13:22;;;;;;;1.10;1.02;;;19.10;99.90;;;;;;5051025;28;20197;-58
2022/06/13 04:16:18;;;;;;;0.70;0.70;;;19.10;99.90;;;;;;5042337;28;20221;-58
2022/06/13 04:19:01;;;;;;;0.80;0.80;;;19.10;99.90;;;;;;5047909;28;20210;-57
2022/06/13 04:21:36;;;;;;;0.70;0.70;;;19.10;99.90;;;;;;5057979;28;20539;-57
2022/06/13 04:24:17;;;;;;;0.77;0.77;;;19.10;99.90;;;;;;5050864;28;20346;-58
2022/06/13 04:26:51;;;;;;;0.70;0.70;;;19.20;99.90;;;;;;5049368;28;20197;-58
2022/06/13 04:29:27;;;;;;;0.70;0.70;;;19.20;99.90;;;;;;5042465;28;20186;-58
2022/06/13 04:31:59;;;;;;;0.82;0.82;;;19.30;99.90;;;;;;5052637;28;20716;-59
2022/06/13 04:34:32;;;;;;;1.08;0.88;;;19.30;99.90;;;;;;5052945;28;20239;-59
2022/06/13 04:37:03;;;;;;;0.60;0.60;;;19.30;99.90;;;;;;5055381;28;20206;-58
2022/06/13 04:39:34;;;;;;;0.98;0.98;;;19.40;99.90;;;;;;5048247;28;20261;-57
2022/06/13 04:42:04;;;;;;;0.90;0.90;;;19.40;99.90;;;;;;5049573;28;20193;-57
2022/06/13 04:44:34;;;;;;;0.85;0.85;;;19.40;99.90;;;;;;5049202;28;20189;-57
2022/06/13 04:47:03;;;;;;;1.20;1.10;;;19.50;99.90;;;;;;5047265;28;20263;-57
2022/06/13 04:49:35;;;;;;;0.80;0.80;;;19.50;99.90;;;;;;5040134;28;20198;-58
2022/06/13 04:52:09;;;;;;;1.00;1.00;;;19.60;99.90;;;;;;5052017;28;20209;-59
2022/06/13 04:54:40;;;;;;;1.30;0.75;;;19.60;99.90;;;;;;5050187;28;20194;-57
2022/06/13 04:57:12;;;;;;;0.85;0.82;;;19.60;99.90;;;;;;5050945;28;20305;-58
2022/06/13 04:59:41;;;;;;;0.85;0.85;;;19.60;99.90;;;;;;5049167;28;20568;-58
2022/06/13 05:02:13;;;;;;;0.70;0.70;;;19.70;99.90;;;;;;5044564;28;20276;-58
2022/06/13 05:04:40;;;;;;;0.68;0.68;;;19.70;99.90;;;;;;5042068;28;20302;-59
2022/06/13 05:07:13;;;;;;;0.60;0.60;;;19.70;99.80;;;;;;5051942;28;20228;-59
2022/06/13 05:09:43;;;;;;;0.73;0.73;;;19.70;99.70;;;;;;5049345;28;20198;-58
2022/06/13 05:12:16;;;;;;;0.75;0.75;;;19.70;99.60;;;;;;5041707;28;20265;-59
2022/06/13 05:14:50;;;;;;;0.60;0.60;;;19.70;99.60;;;;;;5044788;28;20201;-60
2022/06/13 05:17:49;;;;;;;0.88;0.60;;;19.70;99.60;;;;;;5043659;28;20273;-58
2022/06/13 05:20:24;;;;;;;0.77;0.77;;;19.70;99.60;;;;;;5030726;28;20206;-58
2022/06/13 05:23:04;;;;;;;0.80;0.80;;;19.70;99.60;;;;;;5048796;28;20193;-58
2022/06/13 05:25:43;;;;;;;1.20;0.80;;;19.80;99.80;;;;;;5049204;28;20244;-59
2022/06/13 05:28:11;;;;;;;1.25;1.00;;;19.80;99.80;;;;;;5045391;28;20277;-57
2022/06/13 05:30:41;;;;;;;0.90;0.90;;;19.80;99.80;;;;;;5048138;28;20405;-58
2022/06/13 05:33:10;;;;;;;1.10;1.00;;;19.80;99.90;;;;;;5048741;28;20908;-58
2022/06/13 05:35:43;;;;;;;0.80;0.80;;;19.80;99.90;;;;;;5049341;28;20259;-59
2022/06/13 05:38:16;;;;;;;1.13;0.95;;;19.80;99.90;;;;;;5050144;28;20303;-58
2022/06/13 05:40:43;;;;;;;1.88;1.60;;;19.80;99.90;;;;;;5052739;28;20653;-59
2022/06/13 05:43:11;;;;;;;1.40;1.30;;;19.80;99.90;;;;;;5052495;28;20210;-57
2022/06/13 05:45:40;;;;;;;1.50;1.10;;;19.80;99.90;;;;;;5044439;28;20298;-58
2022/06/13 05:48:12;;;;;;;0.82;0.82;;;19.80;99.90;;;;;;5043805;28;20197;-59
2022/06/13 05:50:39;;;;;;;1.08;0.98;;;19.70;99.90;;;;;;5055008;28;20612;-60
2022/06/13 05:53:06;;;;;;;1.30;1.20;;;19.80;99.90;;;;;;5053845;28;20198;-58
2022/06/13 05:55:36;;;;;;;3.42;1.50;;;19.80;99.90;;;;;;5050753;28;20205;-58
2022/06/13 05:58:03;;;;;;;1.38;1.27;;;19.80;99.90;;;;;;5047857;28;20217;-59
2022/06/13 06:00:34;;;;;;;2.88;1.40;;;19.80;99.90;;;;;;5051645;28;20185;-58
2022/06/13 06:03:01;;;;;;;1.27;0.90;;;19.80;99.90;;;;;;5055877;28;20205;-59
2022/06/13 06:05:28;;;;;;;1.42;1.30;;;19.80;99.90;;;;;;5061247;28;20205;-59
2022/06/13 06:07:55;;;;;;;1.95;1.30;;;19.80;99.90;;;;;;5048580;28;20194;-59
2022/06/13 06:10:26;;;;;;;2.25;1.15;;;19.80;99.80;;;;;;5053415;28;20186;-59
2022/06/13 06:12:55;;;;;;;1.02;1.02;;;19.80;99.70;;;;;;5053694;28;20276;-58
2022/06/13 06:15:22;;;;;;;1.40;1.10;;;19.80;99.60;;;;;;5053888;28;20190;-58
2022/06/13 06:17:49;;;;;;;1.55;1.20;;;19.80;99.60;;;;;;5056993;28;20216;-59
2022/06/13 06:20:19;;;;;;;0.90;0.90;;;19.70;99.60;;;;;;5047883;28;20276;-57
2022/06/13 06:22:47;;;;;;;1.23;0.80;;;19.80;99.70;;;;;;5047861;28;20194;-57
2022/06/13 06:25:14;;;;;;;0.73;0.73;;;19.70;99.80;;;;;;5041825;28;20237;-59
2022/06/13 06:27:41;;;;;;;1.10;1.00;;;19.70;99.80;;;;;;5046110;28;20666;-57
2022/06/13 06:30:14;;;;;;;1.20;1.20;;;19.80;99.80;;;;;;5040744;28;20665;-59
2022/06/13 06:32:41;;;;;;;0.82;0.80;;;19.80;99.80;;;;;;5043404;28;20197;-59
2022/06/13 06:35:09;;;;;;;1.33;1.13;;;19.90;99.70;;;;;;5047015;28;20248;-56
2022/06/13 06:37:39;;;;;;;1.35;1.20;;;19.90;99.50;;;;;;5041971;28;20265;-58
2022/06/13 06:40:08;;;;;;;1.95;0.88;;;19.90;99.40;;;;;;5042489;28;20308;-58
2022/06/13 06:42:35;;;;;;;0.65;0.65;;;19.90;99.40;;;;;;5043582;28;20273;-59
2022/06/13 06:45:03;;;;;;;0.90;0.90;;;20.00;99.40;;;;;;5045291;28;20689;-59
2022/06/13 06:47:31;;;;;;;0.70;0.70;;;20.00;99.80;;;;;;5038403;28;20190;-59
2022/06/13 06:49:58;;;;;;;3.13;1.00;;;20.00;99.40;;;;;;5045937;28;20275;-58
2022/06/13 06:52:25;;;;;;;0.98;0.98;;;20.00;99.30;;;;;;5040517;28;20264;-58
2022/06/13 07:00:19;;;;;;;1.65;1.17;;;20.10;99.60;;;;;;5015205;28;20343;-59
2022/06/13 07:02:47;;;;;;;1.63;1.00;;;20.10;99.30;;;;;;5044769;28;20222;-59
2022/06/13 07:05:15;;;;;;;1.00;0.90;;;20.10;99.30;;;;;;5040569;28;22380;-59
2022/06/13 07:07:42;;;;;;;2.03;1.40;;;20.10;99.20;;;;;;5040716;28;20194;-59
2022/06/13 07:10:12;;;;;;;1.67;1.15;;;20.10;99.10;;;;;;5043450;28;20527;-59
2022/06/13 07:12:39;;;;;;;2.22;1.20;;;20.10;99.10;;;;;;5045604;28;20267;-59
2022/06/13 07:15:07;;;;;;;1.35;1.25;;;20.10;99.10;;;;;;5054861;28;20197;-58
2022/06/13 07:17:34;;;;;;;2.03;1.30;;;20.00;99.10;;;;;;5045487;28;20205;-58
2022/06/13 07:20:03;;;;;;;1.00;1.00;;;20.00;99.20;;;;;;5046626;28;20638;-59
2022/06/13 07:22:30;;;;;;;7.32;0.90;;;20.00;99.20;;;;;;5046361;28;20544;-59
2022/06/13 07:24:57;;;;;;;1.13;1.10;;;19.90;99.20;;;;;;5039973;28;20237;-60
2022/06/13 07:27:24;;;;;;;1.08;1.08;;;19.90;99.20;;;;;;5049209;28;20202;-58
2022/06/13 07:29:51;;;;;;;1.15;1.00;;;19.90;99.30;;;;;;5045328;28;20197;-60
2022/06/13 07:32:21;;;;;;;1.10;0.90;;;20.00;99.30;;;;;;5042530;28;20194;-58
2022/06/13 07:34:51;;;;;;;1.17;0.80;;;20.00;99.30;;;;;;5055120;28;20281;-60
2022/06/13 07:40:05;;;;;;;1.00;1.00;;;20.00;99.20;;;;;;5042823;28;20673;-58
2022/06/13 07:42:36;;;;;;;1.23;0.95;;;20.10;99.30;;;;;;5044362;28;20209;-59
2022/06/13 07:45:03;;;;;;;1.10;1.00;;;20.10;99.30;;;;;;5041020;28;20206;-59
2022/06/13 07:47:30;;;;;;;1.60;1.15;;;20.10;99.30;;;;;;5045717;28;20255;-59
2022/06/13 07:49:57;;;;;;;1.50;1.20;;;20.10;99.30;;;;;;5042880;28;20708;-59
2022/06/13 07:52:26;;;;;;;0.90;0.90;;;20.20;99.30;;;;;;5045202;28;20202;-59
2022/06/13 07:54:53;;;;;;;2.08;1.30;;;20.30;99.30;;;;;;5045186;28;20208;-59
2022/06/13 07:57:20;;;;;;;1.20;1.08;;;20.30;99.30;;;;;;5047780;28;20224;-58
2022/06/13 07:59:47;;;;;;;1.00;0.90;;;20.30;99.30;;;;;;5046795;28;20209;-58
2022/06/13 08:02:19;;;;;;;1.70;1.20;;;20.30;99.40;;;;;;5048593;28;20198;-59
2022/06/13 08:04:46;;;;;;;1.55;1.10;;;20.40;99.50;;;;;;5057488;28;20202;-57
2022/06/13 08:07:15;;;;;;;1.13;1.02;;;20.40;99.90;;;;;;5043756;28;20204;-58
2022/06/13 08:09:43;;;;;;;0.95;0.95;;;20.50;99.50;;;;;;5045451;28;20650;-58
2022/06/13 08:12:13;;;;;;;0.93;0.93;;;20.50;99.40;;;;;;5044909;28;20225;-57
2022/06/13 08:14:45;;;;;;;1.02;0.90;;;20.50;99.30;;;;;;5043016;28;20191;-59
2022/06/13 08:17:12;;;;;;;1.50;1.23;;;20.50;99.30;;;;;;5040985;28;20270;-58
2022/06/13 08:19:39;;;;;;;1.48;1.05;;;20.60;99.20;;;;;;5045453;28;20737;-57
2022/06/13 08:22:07;;;;;;;1.40;1.30;;;20.70;99.10;;;;;;5048393;28;20205;-59
2022/06/13 08:24:34;;;;;;;1.27;1.20;;;20.80;99.10;;;;;;5060389;28;20249;-59
2022/06/13 08:27:03;;;;;;;1.05;0.95;;;20.80;99.00;;;;;;5049386;28;20197;-58
2022/06/13 08:29:30;;;;;;;1.23;1.00;;;20.90;99.00;;;;;;5049878;28;20280;-57
2022/06/13 08:31:57;;;;;;;1.75;1.20;;;20.90;98.90;;;;;;5050952;28;20197;-59
2022/06/13 08:34:24;;;;;;;1.35;0.98;;;21.00;98.90;;;;;;5052034;28;20255;-59
2022/06/13 08:36:52;;;;;;;1.00;1.00;;;21.10;98.90;;;;;;5064373;28;20253;-59
2022/06/13 08:39:19;;;;;;;0.98;0.93;;;21.10;98.90;;;;;;5042593;28;20229;-58
2022/06/13 08:41:55;;;;;;;1.77;1.30;;;21.20;98.80;;;;;;5055360;28;20326;-59
2022/06/13 08:44:47;;;;;;;0.90;0.90;;;21.20;98.60;;;;;;5052301;28;20599;-57
2022/06/13 08:47:21;;;;;;;0.60;0.60;;;21.40;98.50;;;;;;5054731;28;20214;-56
2022/06/13 08:50:02;;;;;;;1.50;0.90;;;21.50;98.20;;;;;;5053526;28;20327;-58
2022/06/13 08:52:32;;;;;;;0.90;0.90;;;21.60;98.00;;;;;;5045635;28;20189;-59
2022/06/13 08:55:10;;;;;;;0.90;0.90;;;21.60;97.40;;;;;;5053642;28;20239;-59
2022/06/13 08:57:44;;;;;;;1.27;0.80;;;21.70;97.20;;;;;;5052839;28;20193;-57
2022/06/13 09:00:18;;;;;;;1.42;0.93;;;21.80;97.10;;;;;;5052471;28;20601;-59
2022/06/13 09:02:50;;;;;;;1.25;0.90;;;21.80;97.20;;;;;;5056052;28;20209;-58
2022/06/13 09:05:24;;;;;;;0.88;0.85;;;21.90;96.70;;;;;;5054048;28;20271;-58
2022/06/13 09:07:57;;;;;;;1.20;1.10;;;22.00;96.50;;;;;;5049493;28;20193;-58
2022/06/13 09:10:31;;;;;;;1.95;1.10;;;22.00;96.30;;;;;;5053546;28;20950;-57
2022/06/13 09:13:05;;;;;;;1.63;1.15;;;22.10;96.20;;;;;;5056262;28;20279;-59
2022/06/13 09:15:43;;;;;;;2.15;1.30;;;22.20;95.90;;;;;;5057915;28;20213;-60
2022/06/13 09:18:15;;;;;;;1.50;1.33;;;22.20;95.50;;;;;;5042420;28;20197;-58
2022/06/13 09:20:50;;;;;;;1.10;1.10;;;22.30;95.30;;;;;;5050815;28;20217;-58
2022/06/13 09:23:24;;;;;;;1.30;1.17;;;22.40;95.50;;;;;;5051280;28;20269;-58
2022/06/13 09:25:59;;;;;;;1.42;1.10;;;22.50;95.00;;;;;;5047386;28;20190;-58
2022/06/13 09:28:32;;;;;;;2.38;1.00;;;22.70;94.90;;;;;;5049662;28;20217;-59
2022/06/13 09:31:07;;;;;;;1.30;0.80;;;22.70;94.70;;;;;;5051536;28;20640;-57
2022/06/13 09:33:38;;;;;;;0.85;0.85;;;22.70;94.40;;;;;;5051762;28;20197;-58
2022/06/13 09:36:14;;;;;;;0.80;0.80;;;22.70;94.20;;;;;;5052470;28;20194;-58
2022/06/13 09:38:46;;;;;;;2.38;0.93;;;22.70;94.20;;;;;;5053341;28;20227;-60
2022/06/13 09:41:32;;;;;;;1.75;1.10;;;22.60;94.20;;;;;;5051314;28;20210;-58
2022/06/13 09:44:13;;;;;;;0.70;0.70;;;22.60;94.30;;;;;;5052319;28;20193;-58
2022/06/13 09:46:50;;;;;;;0.68;0.68;;;22.50;94.30;;;;;;5047183;28;20220;-59
2022/06/13 09:49:22;;;;;;;1.20;0.95;;;22.50;94.30;;;;;;5042939;28;20658;-58
2022/06/13 09:52:01;;;;;;;1.13;1.02;;;22.50;94.40;;;;;;5045171;28;20318;-58
2022/06/13 09:54:39;;;;;;;0.80;0.80;;;22.40;94.80;;;;;;5049941;28;20194;-58
2022/06/13 09:57:17;;;;;;;0.80;0.80;;;22.40;94.40;;;;;;5054880;28;20192;-58
2022/06/13 10:00:01;;;;;;;0.77;0.77;;;22.30;94.40;;;;;;5052383;28;20547;-59
2022/06/13 10:02:35;;;;;;;1.17;1.05;;;22.30;94.40;;;;;;5052721;28;20200;-59
2022/06/13 10:05:09;;;;;;;0.90;0.90;;;22.20;94.40;;;;;;5054649;28;20201;-58
2022/06/13 10:07:46;;;;;;;2.72;0.95;;;22.20;94.40;;;;;;5048689;28;20200;-59
2022/06/13 10:10:22;;;;;;;0.88;0.88;;;22.10;94.40;;;;;;5038665;28;20414;-59
2022/06/13 10:12:59;;;;;;;1.08;0.80;;;22.10;94.50;;;;;;5052745;28;20201;-59
2022/06/13 10:15:37;;;;;;;3.63;0.77;;;22.10;94.70;;;;;;5057230;28;20374;-58
2022/06/13 10:18:22;;;;;;;1.30;1.08;;;22.10;94.80;;;;;;5063107;28;20673;-57
2022/06/13 10:20:54;;;;;;;0.80;0.80;;;22.10;94.90;;;;;;5044857;28;20210;-58
2022/06/13 10:23:36;;;;;;;1.20;0.93;;;22.20;94.90;;;;;;5048931;28;20237;-59
2022/06/13 10:26:11;;;;;;;0.60;0.60;;;22.20;94.90;;;;;;5044833;28;20185;-58
2022/06/13 10:28:57;;;;;;;0.80;0.60;;;22.20;94.90;;;;;;5057312;28;20201;-58
2022/06/13 10:31:35;;;;;;;3.15;0.82;;;22.20;95.00;;;;;;5050306;28;20272;-58
2022/06/13 10:34:12;;;;;;;0.70;0.70;;;22.10;95.00;;;;;;5050413;28;20551;-60
2022/06/13 10:36:48;;;;;;;0.73;0.65;;;22.10;95.00;;;;;;5040458;28;20699;-59
2022/06/13 10:39:18;;;;;;;0.80;0.73;;;22.00;95.00;;;;;;5052605;28;20191;-59
2022/06/13 10:41:49;;;;;;;1.15;1.02;;;22.00;95.00;;;;;;5047961;28;20267;-59
2022/06/13 10:44:18;;;;;;;2.13;1.40;;;22.00;95.00;;;;;;5050682;28;20554;-58
2022/06/13 10:46:50;;;;;;;1.40;1.30;;;22.00;95.00;;;;;;5049769;28;20202;-58
2022/06/13 10:49:23;;;;;;;1.10;1.05;;;22.10;95.00;;;;;;5059334;28;20669;-58
2022/06/13 10:51:52;;;;;;;2.75;1.30;;;22.10;95.10;;;;;;5049647;28;20194;-58
2022/06/13 10:54:22;;;;;;;1.60;1.30;;;22.20;95.10;;;;;;5054745;28;20254;-58
2022/06/13 10:56:53;;;;;;;2.90;1.40;;;22.10;94.90;;;;;;5067875;28;20201;-58
2022/06/13 10:59:25;;;;;;;1.40;1.30;;;22.10;94.90;;;;;;5044046;28;20225;-59
2022/06/13 11:01:58;;;;;;;1.58;1.13;;;22.00;95.20;;;;;;5046406;28;20202;-58
2022/06/13 11:04:28;;;;;;;1.17;1.10;;;22.00;94.90;;;;;;5068301;28;20212;-58
2022/06/13 11:06:59;;;;;;;2.33;1.17;;;22.00;95.00;;;;;;5060943;28;20198;-60
2022/06/13 11:09:35;;;;;;;1.23;1.13;;;22.00;95.10;;;;;;5057180;28;20207;-57
2022/06/13 11:12:04;;;;;;;0.90;0.90;;;21.80;94.70;;;;;;5067544;28;20824;-58
2022/06/13 11:22:37;;;;;;;1.65;0.93;;;21.70;93.60;;;;;;5053278;28;20492;-57
2022/06/13 11:23:09;;;;;;;0.73;0.73;;;21.10;92.20;;;;;;5045992;28;20588;-58
2022/06/13 11:25:37;;;;;;;0.82;0.82;;;20.90;92.60;;;;;;5049645;28;20189;-59
2022/06/13 11:28:09;;;;;;;1.38;0.70;;;20.80;93.00;;;;;;5047639;28;20198;-62
2022/06/13 11:30:44;;;;;;;0.50;0.50;;;20.70;93.40;;;;;;5036407;28;20708;-57
2022/06/13 11:33:19;;;;;;;1.33;0.93;;;20.70;93.80;;;;;;5048432;28;20238;-59
2022/06/13 11:35:50;;;;;;;0.70;0.70;;;20.70;94.20;;;;;;5044528;28;20190;-58
2022/06/13 11:38:21;;;;;;;1.23;0.77;;;20.60;94.40;;;;;;5044483;28;20285;-58
2022/06/13 11:41:02;;;;;;;0.80;0.80;;;20.50;94.70;;;;;;5041680;28;20301;-58
2022/06/13 11:43:37;;;;;;;0.63;0.63;;;20.50;94.90;;;;;;5049529;28;20724;-59
2022/06/13 11:46:08;;;;;;;0.93;0.65;;;20.50;95.20;;;;;;5050047;28;20267;-59
2022/06/13 11:48:37;;;;;;;0.77;0.60;;;20.50;95.40;;;;;;5055358;28;20216;-59
2022/06/13 11:51:09;;;;;;;0.90;0.80;;;20.40;95.60;;;;;;5045880;28;20190;-59
2022/06/13 11:53:41;;;;;;;0.80;0.80;;;20.30;95.80;;;;;;5050162;28;20202;-58
2022/06/13 11:56:12;;;;;;;1.02;0.80;;;20.30;96.10;;;;;;5043781;28;20246;-58
2022/06/13 11:58:43;;;;;;;0.70;0.70;;;20.30;96.30;;;;;;5044576;28;20705;-58
2022/06/13 12:01:21;;;;;;;0.65;0.65;;;20.40;96.50;;;;;;5048762;28;20235;-58
2022/06/13 12:03:58;;;;;;;0.65;0.65;;;20.30;96.60;;;;;;5045925;28;20272;-57
2022/06/13 12:06:28;;;;;;;0.75;0.70;;;20.30;96.90;;;;;;5032191;28;20607;-58
2022/06/13 12:09:06;;;;;;;0.90;0.90;;;20.40;97.00;;;;;;5047116;28;20209;-58
2022/06/13 12:11:43;;;;;;;0.88;0.80;;;20.30;97.10;;;;;;5047981;28;20186;-58
2022/06/13 12:14:10;;;;;;;1.85;1.02;;;20.30;97.30;;;;;;5044724;28;20189;-59
2022/06/13 12:16:43;;;;;;;1.67;1.10;;;20.30;97.40;;;;;;5041959;28;20221;-59
2022/06/13 12:19:34;;;;;;;1.10;0.70;;;20.30;97.50;;;;;;5047210;28;20194;-58
2022/06/13 12:22:14;;;;;;;0.80;0.80;;;20.30;97.60;;;;;;5046176;28;20225;-57
2022/06/13 12:25:02;;;;;;;1.10;0.98;;;20.30;98.00;;;;;;5038912;28;20770;-58
2022/06/13 12:27:39;;;;;;;1.23;0.80;;;20.20;97.70;;;;;;5044584;28;20206;-58
2022/06/13 12:30:37;;;;;;;0.80;0.80;;;20.30;97.80;;;;;;5047197;28;20201;-58
2022/06/13 12:33:15;;;;;;;1.95;0.85;;;20.30;97.90;;;;;;5049640;28;20189;-58
2022/06/13 12:36:01;;;;;;;0.80;0.80;;;20.30;98.00;;;;;;5048897;28;20190;-57
2022/06/13 12:38:56;;;;;;;1.65;0.70;;;20.40;98.20;;;;;;5047795;28;20209;-58
2022/06/13 12:41:29;;;;;;;2.78;1.10;;;20.50;98.40;;;;;;5048598;28;20206;-56
2022/06/13 12:44:13;;;;;;;1.33;1.02;;;20.60;98.50;;;;;;5046287;28;20197;-57
2022/06/13 12:46:56;;;;;;;1.00;1.00;;;20.60;98.60;;;;;;5048450;28;20618;-58
2022/06/13 12:49:54;;;;;;;1.88;0.93;;;20.70;98.70;;;;;;5044855;28;20193;-57
2022/06/13 12:52:44;;;;;;;2.17;1.00;;;20.70;98.70;;;;;;5038445;28;20211;-59
2022/06/13 12:55:29;;;;;;;1.33;1.23;;;20.70;98.80;;;;;;5035389;28;20653;-58
2022/06/13 12:58:08;;;;;;;1.70;1.02;;;20.80;98.80;;;;;;5048944;28;20197;-59
2022/06/13 13:00:42;;;;;;;2.53;1.10;;;20.90;98.90;;;;;;5041724;28;20287;-57
2022/06/13 13:03:43;;;;;;;0.90;0.90;;;20.90;98.80;;;;;;5044097;28;20198;-58
2022/06/13 13:06:16;;;;;;;1.05;0.95;;;21.00;98.80;;;;;;5017794;28;20592;-57
2022/06/13 13:08:58;;;;;;;1.10;1.00;;;21.00;98.70;;;;;;5050960;28;20220;-58
2022/06/13 13:11:42;;;;;;;9.10;1.65;;;21.10;98.70;;;;;;5040966;28;20198;-57
2022/06/13 13:14:20;;;;;;;0.90;0.90;;;21.00;98.60;;;;;;5053263;28;20775;-58
2022/06/13 13:16:53;;;;;;;1.40;0.98;;;21.00;98.60;;;;;;5051726;28;20271;-57
2022/06/13 13:19:36;;;;;;;1.33;1.13;;;21.00;98.60;;;;;;5056922;28;20280;-58
2022/06/13 13:22:10;;;;;;;2.13;1.20;;;21.00;98.60;;;;;;5050166;28;20221;-58
2022/06/13 13:24:52;;;;;;;1.17;1.05;;;21.10;98.50;;;;;;5045341;28;20341;-57
2022/06/13 13:27:24;;;;;;;1.33;1.25;;;21.10;98.50;;;;;;5048589;28;20218;-55
2022/06/13 13:30:04;;;;;;;1.20;1.10;;;21.20;98.50;;;;;;5044196;28;20196;-57
2022/06/13 13:32:40;;;;;;;1.92;1.25;;;21.20;98.60;;;;;;5040668;28;20221;-58
2022/06/13 13:35:19;;;;;;;1.77;1.15;;;21.20;98.60;;;;;;5050137;28;20197;-58